sensor_id;sensor_type;location;lat;lon;timestamp;temperature;humidity
43183;DHT22;28802;38.578;-0.066;2022-11-20T00:00:41;14.50;99.90
43183;DHT22;28802;38.578;-0.066;2022-11-20T00:03:07;14.50;99.90
43183;DHT22;28802;38.578;-0.066;2022-11-20T00:05:33;14.50;99.90
43183;DHT22;28802;38.578;-0.066;2022-11-20T00:07:59;14.50;99.90
43183;DHT22;28802;38.578;-0.066;2022-11-20T00:10:25;14.50;99.90
43183;DHT22;28802;38.578;-0.066;2022-11-20T00:12:52;14.60;99.90
43183;DHT22;28802;38.578;-0.066;2022-11-20T00:15:17;14.60;99.90
43183;DHT22;28802;38.578;-0.066;2022-11-20T00:17:43;14.70;99.90
43183;DHT22;28802;38.578;-0.066;2022-11-20T00:20:10;14.70;99.90
43183;DHT22;28802;38.578;-0.066;2022-11-20T00:22:36;14.70;99.90
43183;DHT22;28802;38.578;-0.066;2022-11-20T00:25:02;14.60;99.90
43183;DHT22;28802;38.578;-0.066;2022-11-20T00:27:27;14.60;99.90
43183;DHT22;28802;38.578;-0.066;2022-11-20T00:29:53;14.60;99.90
43183;DHT22;28802;38.578;-0.066;2022-11-20T00:32:19;14.70;99.90
43183;DHT22;28802;38.578;-0.066;2022-11-20T00:34:45;14.70;99.90
43183;DHT22;28802;38.578;-0.066;2022-11-20T00:37:11;14.70;99.90
43183;DHT22;28802;38.578;-0.066;2022-11-20T00:39:37;14.60;99.90
43183;DHT22;28802;38.578;-0.066;2022-11-20T00:42:02;14.60;99.90
43183;DHT22;28802;38.578;-0.066;2022-11-20T00:44:28;14.70;99.90
43183;DHT22;28802;38.578;-0.066;2022-11-20T00:46:54;14.60;99.90
43183;DHT22;28802;38.578;-0.066;2022-11-20T00:49:20;14.60;99.90
43183;DHT22;28802;38.578;-0.066;2022-11-20T00:51:46;14.70;99.90
43183;DHT22;28802;38.578;-0.066;2022-11-20T00:54:12;14.60;99.90
43183;DHT22;28802;38.578;-0.066;2022-11-20T00:56:38;14.60;99.90
43183;DHT22;28802;38.578;-0.066;2022-11-20T00:59:04;14.50;99.90
43183;DHT22;28802;38.578;-0.066;2022-11-20T01:01:30;14.50;99.90
43183;DHT22;28802;38.578;-0.066;2022-11-20T01:03:58;14.60;99.90
43183;DHT22;28802;38.578;-0.066;2022-11-20T01:06:25;14.60;99.90
43183;DHT22;28802;38.578;-0.066;2022-11-20T01:08:55;14.60;99.90
43183;DHT22;28802;38.578;-0.066;2022-11-20T01:11:26;14.60;99.90
43183;DHT22;28802;38.578;-0.066;2022-11-20T01:13:53;14.50;99.90
43183;DHT22;28802;38.578;-0.066;2022-11-20T01:16:23;14.50;99.90
43183;DHT22;28802;38.578;-0.066;2022-11-20T01:18:51;14.40;99.90
43183;DHT22;28802;38.578;-0.066;2022-11-20T01:21:22;14.10;99.90
43183;DHT22;28802;38.578;-0.066;2022-11-20T01:23:49;13.90;99.90
43183;DHT22;28802;38.578;-0.066;2022-11-20T01:26:18;13.70;99.90
43183;DHT22;28802;38.578;-0.066;2022-11-20T01:28:44;13.30;99.90
43183;DHT22;28802;38.578;-0.066;2022-11-20T01:31:12;13.00;99.90
43183;DHT22;28802;38.578;-0.066;2022-11-20T01:33:39;13.00;99.90
43183;DHT22;28802;38.578;-0.066;2022-11-20T01:36:07;12.90;99.90
43183;DHT22;28802;38.578;-0.066;2022-11-20T01:38:33;12.90;99.90
43183;DHT22;28802;38.578;-0.066;2022-11-20T01:40:59;12.80;99.90
43183;DHT22;28802;38.578;-0.066;2022-11-20T01:43:26;12.70;99.90
43183;DHT22;28802;38.578;-0.066;2022-11-20T01:48:19;12.90;99.90
43183;DHT22;28802;38.578;-0.066;2022-11-20T01:50:46;12.70;99.90
43183;DHT22;28802;38.578;-0.066;2022-11-20T01:53:14;12.80;99.90
43183;DHT22;28802;38.578;-0.066;2022-11-20T01:55:47;12.90;99.90
43183;DHT22;28802;38.578;-0.066;2022-11-20T01:58:14;13.00;99.90
43183;DHT22;28802;38.578;-0.066;2022-11-20T02:00:41;13.00;99.90
43183;DHT22;28802;38.578;-0.066;2022-11-20T02:03:13;12.90;99.90
43183;DHT22;28802;38.578;-0.066;2022-11-20T02:08:09;12.70;99.90
43183;DHT22;28802;38.578;-0.066;2022-11-20T02:10:35;12.70;99.90
43183;DHT22;28802;38.578;-0.066;2022-11-20T02:13:01;12.50;99.90
43183;DHT22;28802;38.578;-0.066;2022-11-20T02:15:45;12.70;99.90
43183;DHT22;28802;38.578;-0.066;2022-11-20T02:18:14;12.80;99.90
43183;DHT22;28802;38.578;-0.066;2022-11-20T02:20:46;13.10;99.90
43183;DHT22;28802;38.578;-0.066;2022-11-20T02:25:58;13.20;99.90
43183;DHT22;28802;38.578;-0.066;2022-11-20T02:28:25;13.30;99.90
43183;DHT22;28802;38.578;-0.066;2022-11-20T02:30:51;13.20;99.90
43183;DHT22;28802;38.578;-0.066;2022-11-20T02:33:17;13.10;99.90
43183;DHT22;28802;38.578;-0.066;2022-11-20T02:35:45;13.00;99.90
43183;DHT22;28802;38.578;-0.066;2022-11-20T02:38:11;13.10;99.90
43183;DHT22;28802;38.578;-0.066;2022-11-20T02:40:38;13.10;99.90
43183;DHT22;28802;38.578;-0.066;2022-11-20T02:43:04;13.00;99.90
43183;DHT22;28802;38.578;-0.066;2022-11-20T02:45:30;12.80;99.90
43183;DHT22;28802;38.578;-0.066;2022-11-20T02:47:56;12.80;99.90
43183;DHT22;28802;38.578;-0.066;2022-11-20T02:50:22;12.70;99.90
43183;DHT22;28802;38.578;-0.066;2022-11-20T02:52:48;12.90;99.90
43183;DHT22;28802;38.578;-0.066;2022-11-20T02:55:13;13.10;99.90
43183;DHT22;28802;38.578;-0.066;2022-11-20T02:57:39;13.20;99.90
43183;DHT22;28802;38.578;-0.066;2022-11-20T03:00:06;13.30;99.90
43183;DHT22;28802;38.578;-0.066;2022-11-20T03:02:33;13.40;99.90
43183;DHT22;28802;38.578;-0.066;2022-11-20T03:04:59;13.50;99.90
43183;DHT22;28802;38.578;-0.066;2022-11-20T03:07:25;13.60;99.90
43183;DHT22;28802;38.578;-0.066;2022-11-20T03:09:51;13.70;99.90
43183;DHT22;28802;38.578;-0.066;2022-11-20T03:12:16;13.70;99.90
43183;DHT22;28802;38.578;-0.066;2022-11-20T03:14:42;13.70;99.90
43183;DHT22;28802;38.578;-0.066;2022-11-20T03:17:08;13.80;99.90
43183;DHT22;28802;38.578;-0.066;2022-11-20T03:19:34;13.80;99.90
43183;DHT22;28802;38.578;-0.066;2022-11-20T03:22:00;13.80;99.90
43183;DHT22;28802;38.578;-0.066;2022-11-20T03:24:26;13.80;99.90
43183;DHT22;28802;38.578;-0.066;2022-11-20T03:26:52;13.80;99.90
43183;DHT22;28802;38.578;-0.066;2022-11-20T03:29:18;13.80;99.90
43183;DHT22;28802;38.578;-0.066;2022-11-20T03:31:44;13.70;99.90
43183;DHT22;28802;38.578;-0.066;2022-11-20T03:34:13;13.90;99.90
43183;DHT22;28802;38.578;-0.066;2022-11-20T03:36:40;14.00;99.90
43183;DHT22;28802;38.578;-0.066;2022-11-20T03:39:06;14.00;99.90
43183;DHT22;28802;38.578;-0.066;2022-11-20T03:41:37;14.00;99.90
43183;DHT22;28802;38.578;-0.066;2022-11-20T03:44:05;14.00;99.90
43183;DHT22;28802;38.578;-0.066;2022-11-20T03:46:32;13.90;99.90
43183;DHT22;28802;38.578;-0.066;2022-11-20T03:48:59;13.70;99.90
43183;DHT22;28802;38.578;-0.066;2022-11-20T03:51:26;13.70;99.90
43183;DHT22;28802;38.578;-0.066;2022-11-20T03:53:54;13.70;99.90
43183;DHT22;28802;38.578;-0.066;2022-11-20T03:56:24;13.80;99.90
43183;DHT22;28802;38.578;-0.066;2022-11-20T03:58:50;13.70;99.90
43183;DHT22;28802;38.578;-0.066;2022-11-20T04:01:21;13.60;99.90
43183;DHT22;28802;38.578;-0.066;2022-11-20T04:03:48;13.50;99.90
43183;DHT22;28802;38.578;-0.066;2022-11-20T04:06:17;13.50;99.90
43183;DHT22;28802;38.578;-0.066;2022-11-20T04:08:43;13.60;99.90
43183;DHT22;28802;38.578;-0.066;2022-11-20T04:11:15;13.60;99.90
43183;DHT22;28802;38.578;-0.066;2022-11-20T04:13:42;13.50;99.90
43183;DHT22;28802;38.578;-0.066;2022-11-20T04:16:11;13.50;99.90
43183;DHT22;28802;38.578;-0.066;2022-11-20T04:18:37;13.50;99.90
43183;DHT22;28802;38.578;-0.066;2022-11-20T04:21:09;13.50;99.90
43183;DHT22;28802;38.578;-0.066;2022-11-20T04:23:36;13.60;99.90
43183;DHT22;28802;38.578;-0.066;2022-11-20T04:26:12;13.60;99.90
43183;DHT22;28802;38.578;-0.066;2022-11-20T04:28:39;13.60;99.90
43183;DHT22;28802;38.578;-0.066;2022-11-20T04:31:15;13.60;99.90
43183;DHT22;28802;38.578;-0.066;2022-11-20T04:33:42;13.80;99.90
43183;DHT22;28802;38.578;-0.066;2022-11-20T04:36:14;13.90;99.90
43183;DHT22;28802;38.578;-0.066;2022-11-20T04:38:40;13.90;99.90
43183;DHT22;28802;38.578;-0.066;2022-11-20T04:41:09;13.80;99.90
43183;DHT22;28802;38.578;-0.066;2022-11-20T04:43:36;13.70;99.90
43183;DHT22;28802;38.578;-0.066;2022-11-20T04:46:02;13.90;99.90
43183;DHT22;28802;38.578;-0.066;2022-11-20T04:48:29;13.60;99.90
43183;DHT22;28802;38.578;-0.066;2022-11-20T04:50:55;13.40;99.90
43183;DHT22;28802;38.578;-0.066;2022-11-20T04:53:22;13.50;99.90
43183;DHT22;28802;38.578;-0.066;2022-11-20T04:55:48;13.50;99.90
43183;DHT22;28802;38.578;-0.066;2022-11-20T04:58:15;13.40;99.90
43183;DHT22;28802;38.578;-0.066;2022-11-20T05:00:41;13.40;99.90
43183;DHT22;28802;38.578;-0.066;2022-11-20T05:03:07;13.50;99.90
43183;DHT22;28802;38.578;-0.066;2022-11-20T05:05:35;13.60;99.90
43183;DHT22;28802;38.578;-0.066;2022-11-20T05:08:02;13.70;99.90
43183;DHT22;28802;38.578;-0.066;2022-11-20T05:10:28;13.70;99.90
43183;DHT22;28802;38.578;-0.066;2022-11-20T05:12:53;13.70;99.90
43183;DHT22;28802;38.578;-0.066;2022-11-20T05:15:19;13.80;99.90
43183;DHT22;28802;38.578;-0.066;2022-11-20T05:17:49;13.90;99.90
43183;DHT22;28802;38.578;-0.066;2022-11-20T05:20:15;13.80;99.90
43183;DHT22;28802;38.578;-0.066;2022-11-20T05:22:41;13.80;99.90
43183;DHT22;28802;38.578;-0.066;2022-11-20T05:25:07;13.80;99.90
43183;DHT22;28802;38.578;-0.066;2022-11-20T05:27:33;13.80;99.90
43183;DHT22;28802;38.578;-0.066;2022-11-20T05:29:59;13.70;99.90
43183;DHT22;28802;38.578;-0.066;2022-11-20T05:32:25;13.70;99.90
43183;DHT22;28802;38.578;-0.066;2022-11-20T05:34:54;13.70;99.90
43183;DHT22;28802;38.578;-0.066;2022-11-20T05:37:19;13.60;99.90
43183;DHT22;28802;38.578;-0.066;2022-11-20T05:39:45;13.60;99.90
43183;DHT22;28802;38.578;-0.066;2022-11-20T05:42:11;13.50;99.90
43183;DHT22;28802;38.578;-0.066;2022-11-20T05:44:57;13.50;99.90
43183;DHT22;28802;38.578;-0.066;2022-11-20T05:47:22;13.40;99.90
43183;DHT22;28802;38.578;-0.066;2022-11-20T05:49:48;13.40;99.90
43183;DHT22;28802;38.578;-0.066;2022-11-20T05:52:14;13.40;99.90
43183;DHT22;28802;38.578;-0.066;2022-11-20T05:54:40;13.30;99.90
43183;DHT22;28802;38.578;-0.066;2022-11-20T05:57:06;13.20;99.90
43183;DHT22;28802;38.578;-0.066;2022-11-20T05:59:32;13.20;99.90
43183;DHT22;28802;38.578;-0.066;2022-11-20T06:01:57;13.30;99.90
43183;DHT22;28802;38.578;-0.066;2022-11-20T06:04:23;13.30;99.90
43183;DHT22;28802;38.578;-0.066;2022-11-20T06:06:49;13.30;99.90
43183;DHT22;28802;38.578;-0.066;2022-11-20T06:09:15;13.20;99.90
43183;DHT22;28802;38.578;-0.066;2022-11-20T06:11:41;13.30;99.90
43183;DHT22;28802;38.578;-0.066;2022-11-20T06:14:07;13.40;99.90
43183;DHT22;28802;38.578;-0.066;2022-11-20T06:16:32;13.40;99.90
43183;DHT22;28802;38.578;-0.066;2022-11-20T06:18:58;13.30;99.90
43183;DHT22;28802;38.578;-0.066;2022-11-20T06:21:24;13.30;99.90
43183;DHT22;28802;38.578;-0.066;2022-11-20T06:23:52;13.30;99.90
43183;DHT22;28802;38.578;-0.066;2022-11-20T06:26:21;13.20;99.90
43183;DHT22;28802;38.578;-0.066;2022-11-20T06:28:48;13.10;99.90
43183;DHT22;28802;38.578;-0.066;2022-11-20T06:31:17;13.10;99.90
43183;DHT22;28802;38.578;-0.066;2022-11-20T06:33:44;13.00;99.90
43183;DHT22;28802;38.578;-0.066;2022-11-20T06:36:11;13.00;99.90
43183;DHT22;28802;38.578;-0.066;2022-11-20T06:38:38;12.90;99.90
43183;DHT22;28802;38.578;-0.066;2022-11-20T06:41:06;12.80;99.90
43183;DHT22;28802;38.578;-0.066;2022-11-20T06:43:32;12.90;99.90
43183;DHT22;28802;38.578;-0.066;2022-11-20T06:45:58;12.90;99.90
43183;DHT22;28802;38.578;-0.066;2022-11-20T06:48:26;12.90;99.90
43183;DHT22;28802;38.578;-0.066;2022-11-20T06:50:52;13.00;99.90
43183;DHT22;28802;38.578;-0.066;2022-11-20T06:53:18;13.10;99.90
43183;DHT22;28802;38.578;-0.066;2022-11-20T06:55:45;13.10;99.90
43183;DHT22;28802;38.578;-0.066;2022-11-20T06:58:12;13.20;99.90
43183;DHT22;28802;38.578;-0.066;2022-11-20T07:00:39;13.40;99.90
43183;DHT22;28802;38.578;-0.066;2022-11-20T07:03:09;13.50;99.90
43183;DHT22;28802;38.578;-0.066;2022-11-20T07:05:36;13.60;99.90
43183;DHT22;28802;38.578;-0.066;2022-11-20T07:08:03;13.90;99.90
43183;DHT22;28802;38.578;-0.066;2022-11-20T07:10:29;14.40;99.90
43183;DHT22;28802;38.578;-0.066;2022-11-20T07:12:55;14.60;99.90
43183;DHT22;28802;38.578;-0.066;2022-11-20T07:15:22;15.10;99.90
43183;DHT22;28802;38.578;-0.066;2022-11-20T07:17:48;15.30;99.90
43183;DHT22;28802;38.578;-0.066;2022-11-20T07:20:15;15.30;99.90
43183;DHT22;28802;38.578;-0.066;2022-11-20T07:22:41;15.40;99.90
43183;DHT22;28802;38.578;-0.066;2022-11-20T07:25:07;15.80;99.90
43183;DHT22;28802;38.578;-0.066;2022-11-20T07:27:34;16.40;99.90
43183;DHT22;28802;38.578;-0.066;2022-11-20T07:30:00;16.40;99.90
43183;DHT22;28802;38.578;-0.066;2022-11-20T07:32:26;16.70;99.90
43183;DHT22;28802;38.578;-0.066;2022-11-20T07:34:52;17.00;99.90
43183;DHT22;28802;38.578;-0.066;2022-11-20T07:37:18;17.40;99.90
43183;DHT22;28802;38.578;-0.066;2022-11-20T07:39:44;18.00;99.90
43183;DHT22;28802;38.578;-0.066;2022-11-20T07:42:10;18.20;99.90
43183;DHT22;28802;38.578;-0.066;2022-11-20T07:44:38;18.50;99.90
43183;DHT22;28802;38.578;-0.066;2022-11-20T07:47:04;18.30;99.90
43183;DHT22;28802;38.578;-0.066;2022-11-20T07:49:30;18.70;99.90
43183;DHT22;28802;38.578;-0.066;2022-11-20T07:51:56;18.10;99.90
43183;DHT22;28802;38.578;-0.066;2022-11-20T07:54:22;17.90;99.90
43183;DHT22;28802;38.578;-0.066;2022-11-20T07:56:48;17.60;99.90
43183;DHT22;28802;38.578;-0.066;2022-11-20T07:59:15;18.50;99.90
43183;DHT22;28802;38.578;-0.066;2022-11-20T08:01:42;19.10;99.90
43183;DHT22;28802;38.578;-0.066;2022-11-20T08:04:08;19.60;99.90
43183;DHT22;28802;38.578;-0.066;2022-11-20T08:06:35;19.60;99.90
43183;DHT22;28802;38.578;-0.066;2022-11-20T08:09:01;19.90;99.90
43183;DHT22;28802;38.578;-0.066;2022-11-20T08:11:27;19.90;99.90
43183;DHT22;28802;38.578;-0.066;2022-11-20T08:14:12;19.80;99.90
43183;DHT22;28802;38.578;-0.066;2022-11-20T08:16:48;20.00;99.90
43183;DHT22;28802;38.578;-0.066;2022-11-20T08:19:16;19.40;99.90
43183;DHT22;28802;38.578;-0.066;2022-11-20T08:21:42;19.60;99.90
43183;DHT22;28802;38.578;-0.066;2022-11-20T08:24:09;20.10;99.90
43183;DHT22;28802;38.578;-0.066;2022-11-20T08:26:36;20.60;99.90
43183;DHT22;28802;38.578;-0.066;2022-11-20T08:29:03;20.90;99.90
43183;DHT22;28802;38.578;-0.066;2022-11-20T08:31:29;20.60;99.90
43183;DHT22;28802;38.578;-0.066;2022-11-20T08:33:56;20.40;99.90
43183;DHT22;28802;38.578;-0.066;2022-11-20T08:36:23;19.00;99.90
43183;DHT22;28802;38.578;-0.066;2022-11-20T08:38:50;18.60;99.90
43183;DHT22;28802;38.578;-0.066;2022-11-20T08:41:16;18.80;99.90
43183;DHT22;28802;38.578;-0.066;2022-11-20T08:43:55;19.00;99.90
43183;DHT22;28802;38.578;-0.066;2022-11-20T08:46:22;19.90;99.90
43183;DHT22;28802;38.578;-0.066;2022-11-20T08:48:48;19.80;99.90
43183;DHT22;28802;38.578;-0.066;2022-11-20T08:51:15;20.00;99.90
43183;DHT22;28802;38.578;-0.066;2022-11-20T08:53:41;20.30;99.90
43183;DHT22;28802;38.578;-0.066;2022-11-20T08:56:07;20.10;99.90
43183;DHT22;28802;38.578;-0.066;2022-11-20T08:58:33;20.30;99.90
43183;DHT22;28802;38.578;-0.066;2022-11-20T09:00:59;19.90;99.90
43183;DHT22;28802;38.578;-0.066;2022-11-20T09:03:25;19.70;99.90
43183;DHT22;28802;38.578;-0.066;2022-11-20T09:06:06;19.80;99.90
43183;DHT22;28802;38.578;-0.066;2022-11-20T09:08:33;20.20;99.90
43183;DHT22;28802;38.578;-0.066;2022-11-20T09:10:59;20.00;99.90
43183;DHT22;28802;38.578;-0.066;2022-11-20T09:13:27;20.50;99.90
43183;DHT22;28802;38.578;-0.066;2022-11-20T09:16:09;20.50;99.90
43183;DHT22;28802;38.578;-0.066;2022-11-20T09:18:36;20.40;99.90
43183;DHT22;28802;38.578;-0.066;2022-11-20T09:21:05;20.70;99.90
43183;DHT22;28802;38.578;-0.066;2022-11-20T09:23:34;20.40;99.90
43183;DHT22;28802;38.578;-0.066;2022-11-20T09:26:10;20.80;99.90
43183;DHT22;28802;38.578;-0.066;2022-11-20T09:28:37;20.60;99.90
43183;DHT22;28802;38.578;-0.066;2022-11-20T09:31:15;20.70;99.90
43183;DHT22;28802;38.578;-0.066;2022-11-20T09:33:43;20.90;99.90
43183;DHT22;28802;38.578;-0.066;2022-11-20T09:36:09;20.80;99.90
43183;DHT22;28802;38.578;-0.066;2022-11-20T09:38:35;20.80;99.90
43183;DHT22;28802;38.578;-0.066;2022-11-20T09:41:04;20.40;99.90
43183;DHT22;28802;38.578;-0.066;2022-11-20T09:52:17;20.80;99.90
43183;DHT22;28802;38.578;-0.066;2022-11-20T09:54:45;20.80;99.90
43183;DHT22;28802;38.578;-0.066;2022-11-20T09:57:20;20.20;99.90
43183;DHT22;28802;38.578;-0.066;2022-11-20T09:59:59;20.10;99.90
43183;DHT22;28802;38.578;-0.066;2022-11-20T10:02:30;20.50;99.90
43183;DHT22;28802;38.578;-0.066;2022-11-20T10:05:18;20.90;99.90
43183;DHT22;28802;38.578;-0.066;2022-11-20T10:08:14;21.10;99.90
43183;DHT22;28802;38.578;-0.066;2022-11-20T10:13:57;21.90;99.90
43183;DHT22;28802;38.578;-0.066;2022-11-20T10:19:47;22.50;99.90
43183;DHT22;28802;38.578;-0.066;2022-11-20T10:30:09;21.60;99.90
43183;DHT22;28802;38.578;-0.066;2022-11-20T10:32:45;22.30;99.90
43183;DHT22;28802;38.578;-0.066;2022-11-20T10:38:09;21.80;99.90
43183;DHT22;28802;38.578;-0.066;2022-11-20T10:40:44;21.70;99.90
43183;DHT22;28802;38.578;-0.066;2022-11-20T10:43:12;21.70;99.90
43183;DHT22;28802;38.578;-0.066;2022-11-20T10:48:25;23.20;99.90
43183;DHT22;28802;38.578;-0.066;2022-11-20T10:51:08;22.90;99.90
43183;DHT22;28802;38.578;-0.066;2022-11-20T10:56:27;22.60;99.90
43183;DHT22;28802;38.578;-0.066;2022-11-20T11:01:46;22.50;99.90
43183;DHT22;28802;38.578;-0.066;2022-11-20T11:04:43;23.00;99.90
43183;DHT22;28802;38.578;-0.066;2022-11-20T11:07:34;22.70;99.90
43183;DHT22;28802;38.578;-0.066;2022-11-20T11:10:01;23.10;99.90
43183;DHT22;28802;38.578;-0.066;2022-11-20T11:12:28;23.50;99.90
43183;DHT22;28802;38.578;-0.066;2022-11-20T11:14:56;23.10;99.90
43183;DHT22;28802;38.578;-0.066;2022-11-20T11:22:57;23.80;99.90
43183;DHT22;28802;38.578;-0.066;2022-11-20T11:25:27;24.60;99.90
43183;DHT22;28802;38.578;-0.066;2022-11-20T11:27:57;24.00;99.90
43183;DHT22;28802;38.578;-0.066;2022-11-20T11:30:24;23.50;99.90
43183;DHT22;28802;38.578;-0.066;2022-11-20T11:33:01;21.80;99.90
43183;DHT22;28802;38.578;-0.066;2022-11-20T11:35:28;22.30;99.90
43183;DHT22;28802;38.578;-0.066;2022-11-20T11:38:05;22.50;99.90
43183;DHT22;28802;38.578;-0.066;2022-11-20T11:40:35;21.70;99.90
43183;DHT22;28802;38.578;-0.066;2022-11-20T11:43:04;21.70;99.90
43183;DHT22;28802;38.578;-0.066;2022-11-20T11:45:30;21.70;99.90
43183;DHT22;28802;38.578;-0.066;2022-11-20T11:48:00;21.30;99.90
43183;DHT22;28802;38.578;-0.066;2022-11-20T11:50:28;21.30;99.90
43183;DHT22;28802;38.578;-0.066;2022-11-20T11:53:12;21.10;99.90
43183;DHT22;28802;38.578;-0.066;2022-11-20T11:55:49;22.20;99.90
43183;DHT22;28802;38.578;-0.066;2022-11-20T12:01:32;22.10;99.90
43183;DHT22;28802;38.578;-0.066;2022-11-20T12:06:29;21.30;99.90
43183;DHT22;28802;38.578;-0.066;2022-11-20T12:09:04;21.50;99.90
43183;DHT22;28802;38.578;-0.066;2022-11-20T12:16:38;21.90;99.90
43183;DHT22;28802;38.578;-0.066;2022-11-20T12:19:12;22.60;99.90
43183;DHT22;28802;38.578;-0.066;2022-11-20T12:22:11;22.00;99.90
43183;DHT22;28802;38.578;-0.066;2022-11-20T12:27:43;22.10;99.90
43183;DHT22;28802;38.578;-0.066;2022-11-20T12:30:20;22.20;99.90
43183;DHT22;28802;38.578;-0.066;2022-11-20T12:33:15;22.20;99.90
43183;DHT22;28802;38.578;-0.066;2022-11-20T12:35:52;22.70;99.90
43183;DHT22;28802;38.578;-0.066;2022-11-20T12:41:23;22.60;99.90
43183;DHT22;28802;38.578;-0.066;2022-11-20T12:48:13;23.00;99.90
43183;DHT22;28802;38.578;-0.066;2022-11-20T13:07:12;20.70;99.90
43183;DHT22;28802;38.578;-0.066;2022-11-20T13:09:49;20.80;99.90
43183;DHT22;28802;38.578;-0.066;2022-11-20T13:12:36;20.70;99.90
43183;DHT22;28802;38.578;-0.066;2022-11-20T13:18:03;20.60;99.90
43183;DHT22;28802;38.578;-0.066;2022-11-20T13:20:30;20.60;99.90
43183;DHT22;28802;38.578;-0.066;2022-11-20T13:22:57;20.50;99.90
43183;DHT22;28802;38.578;-0.066;2022-11-20T13:25:37;20.50;99.90
43183;DHT22;28802;38.578;-0.066;2022-11-20T13:28:27;20.50;99.90
43183;DHT22;28802;38.578;-0.066;2022-11-20T13:30:54;20.60;99.90
43183;DHT22;28802;38.578;-0.066;2022-11-20T13:33:38;20.50;99.90
43183;DHT22;28802;38.578;-0.066;2022-11-20T13:36:07;20.30;99.90
43183;DHT22;28802;38.578;-0.066;2022-11-20T13:38:50;20.50;99.90
43183;DHT22;28802;38.578;-0.066;2022-11-20T13:46:41;20.70;99.90
43183;DHT22;28802;38.578;-0.066;2022-11-20T13:49:53;20.70;99.90
43183;DHT22;28802;38.578;-0.066;2022-11-20T13:55:02;20.80;99.90
43183;DHT22;28802;38.578;-0.066;2022-11-20T13:57:57;20.70;99.90
43183;DHT22;28802;38.578;-0.066;2022-11-20T14:00:22;20.80;99.90
43183;DHT22;28802;38.578;-0.066;2022-11-20T14:05:25;20.60;99.90
43183;DHT22;28802;38.578;-0.066;2022-11-20T14:07:52;20.40;99.90
43183;DHT22;28802;38.578;-0.066;2022-11-20T14:10:24;20.30;99.90
43183;DHT22;28802;38.578;-0.066;2022-11-20T14:12:51;20.30;99.90
43183;DHT22;28802;38.578;-0.066;2022-11-20T14:15:34;20.40;99.90
43183;DHT22;28802;38.578;-0.066;2022-11-20T14:18:18;20.50;99.90
43183;DHT22;28802;38.578;-0.066;2022-11-20T14:20:45;20.60;99.90
43183;DHT22;28802;38.578;-0.066;2022-11-20T14:23:12;20.70;99.90
43183;DHT22;28802;38.578;-0.066;2022-11-20T14:25:42;20.70;99.90
43183;DHT22;28802;38.578;-0.066;2022-11-20T14:28:21;20.60;99.90
43183;DHT22;28802;38.578;-0.066;2022-11-20T14:30:49;20.60;99.90
43183;DHT22;28802;38.578;-0.066;2022-11-20T14:33:15;20.50;99.90
43183;DHT22;28802;38.578;-0.066;2022-11-20T14:35:47;20.40;99.90
43183;DHT22;28802;38.578;-0.066;2022-11-20T14:38:18;20.50;99.90
43183;DHT22;28802;38.578;-0.066;2022-11-20T14:40:45;20.60;99.90
43183;DHT22;28802;38.578;-0.066;2022-11-20T14:43:25;20.60;99.90
43183;DHT22;28802;38.578;-0.066;2022-11-20T14:48:31;20.40;99.90
43183;DHT22;28802;38.578;-0.066;2022-11-20T14:50:58;20.40;99.90
43183;DHT22;28802;38.578;-0.066;2022-11-20T14:53:25;20.30;99.90
43183;DHT22;28802;38.578;-0.066;2022-11-20T14:56:01;20.40;99.90
43183;DHT22;28802;38.578;-0.066;2022-11-20T14:58:30;20.40;99.90
43183;DHT22;28802;38.578;-0.066;2022-11-20T15:01:00;20.30;99.90
43183;DHT22;28802;38.578;-0.066;2022-11-20T15:03:37;20.20;99.90
43183;DHT22;28802;38.578;-0.066;2022-11-20T15:06:05;20.30;99.90
43183;DHT22;28802;38.578;-0.066;2022-11-20T15:08:32;20.40;99.90
43183;DHT22;28802;38.578;-0.066;2022-11-20T15:10:58;20.60;99.90
43183;DHT22;28802;38.578;-0.066;2022-11-20T15:13:33;20.60;99.90
43183;DHT22;28802;38.578;-0.066;2022-11-20T15:16:02;20.50;99.90
43183;DHT22;28802;38.578;-0.066;2022-11-20T15:18:36;20.50;99.90
43183;DHT22;28802;38.578;-0.066;2022-11-20T15:21:07;20.50;99.90
43183;DHT22;28802;38.578;-0.066;2022-11-20T15:23:34;20.40;99.90
43183;DHT22;28802;38.578;-0.066;2022-11-20T15:26:00;20.30;99.90
43183;DHT22;28802;38.578;-0.066;2022-11-20T15:28:46;20.20;99.90
43183;DHT22;28802;38.578;-0.066;2022-11-20T15:31:15;20.00;99.90
43183;DHT22;28802;38.578;-0.066;2022-11-20T15:33:42;20.00;99.90
43183;DHT22;28802;38.578;-0.066;2022-11-20T15:36:09;19.90;99.90
43183;DHT22;28802;38.578;-0.066;2022-11-20T15:38:35;20.00;99.90
43183;DHT22;28802;38.578;-0.066;2022-11-20T15:41:01;19.90;99.90
43183;DHT22;28802;38.578;-0.066;2022-11-20T15:43:27;19.90;99.90
43183;DHT22;28802;38.578;-0.066;2022-11-20T15:45:55;19.90;99.90
43183;DHT22;28802;38.578;-0.066;2022-11-20T15:48:29;19.90;99.90
43183;DHT22;28802;38.578;-0.066;2022-11-20T15:53:37;19.80;99.90
43183;DHT22;28802;38.578;-0.066;2022-11-20T15:56:04;19.70;99.90
43183;DHT22;28802;38.578;-0.066;2022-11-20T15:58:30;19.70;99.90
43183;DHT22;28802;38.578;-0.066;2022-11-20T16:00:56;19.60;99.90
43183;DHT22;28802;38.578;-0.066;2022-11-20T16:03:23;19.60;99.90
43183;DHT22;28802;38.578;-0.066;2022-11-20T16:05:49;19.50;99.90
43183;DHT22;28802;38.578;-0.066;2022-11-20T16:08:15;19.50;99.90
43183;DHT22;28802;38.578;-0.066;2022-11-20T16:10:41;19.50;99.90
43183;DHT22;28802;38.578;-0.066;2022-11-20T16:13:16;19.50;99.90
43183;DHT22;28802;38.578;-0.066;2022-11-20T16:16:07;19.50;99.90
43183;DHT22;28802;38.578;-0.066;2022-11-20T16:18:36;19.50;99.90
43183;DHT22;28802;38.578;-0.066;2022-11-20T16:21:10;19.40;99.90
43183;DHT22;28802;38.578;-0.066;2022-11-20T16:23:36;19.50;99.90
43183;DHT22;28802;38.578;-0.066;2022-11-20T16:26:13;19.50;99.90
43183;DHT22;28802;38.578;-0.066;2022-11-20T16:28:42;19.50;99.90
43183;DHT22;28802;38.578;-0.066;2022-11-20T16:31:10;19.50;99.90
43183;DHT22;28802;38.578;-0.066;2022-11-20T16:33:37;19.50;99.90
43183;DHT22;28802;38.578;-0.066;2022-11-20T16:36:12;19.30;99.90
43183;DHT22;28802;38.578;-0.066;2022-11-20T16:38:40;19.20;99.90
43183;DHT22;28802;38.578;-0.066;2022-11-20T16:41:07;19.00;99.90
43183;DHT22;28802;38.578;-0.066;2022-11-20T16:43:46;18.90;99.90
43183;DHT22;28802;38.578;-0.066;2022-11-20T16:46:17;19.00;99.90
43183;DHT22;28802;38.578;-0.066;2022-11-20T16:48:43;19.00;99.90
43183;DHT22;28802;38.578;-0.066;2022-11-20T16:51:10;19.20;99.90
43183;DHT22;28802;38.578;-0.066;2022-11-20T16:53:36;19.30;99.90
43183;DHT22;28802;38.578;-0.066;2022-11-20T16:56:13;19.20;99.90
43183;DHT22;28802;38.578;-0.066;2022-11-20T16:58:40;18.90;99.90
43183;DHT22;28802;38.578;-0.066;2022-11-20T17:01:08;18.60;99.90
43183;DHT22;28802;38.578;-0.066;2022-11-20T17:03:42;18.70;99.90
43183;DHT22;28802;38.578;-0.066;2022-11-20T17:06:13;18.80;99.90
43183;DHT22;28802;38.578;-0.066;2022-11-20T17:08:40;18.60;99.90
43183;DHT22;28802;38.578;-0.066;2022-11-20T17:11:07;18.30;99.90